sensor_id;sensor_type;location;lat;lon;timestamp;P1;durP1;ratioP1;P2;durP2;ratioP2
47349;SDS011;33088;51.982;5.872;2023-04-25T00:01:37;20.98;;;4.60;;
47349;SDS011;33088;51.982;5.872;2023-04-25T00:04:03;19.70;;;4.43;;
47349;SDS011;33088;51.982;5.872;2023-04-25T00:06:31;17.77;;;4.30;;
47349;SDS011;33088;51.982;5.872;2023-04-25T00:08:57;17.70;;;4.38;;
47349;SDS011;33088;51.982;5.872;2023-04-25T00:11:23;19.33;;;5.20;;
47349;SDS011;33088;51.982;5.872;2023-04-25T00:13:49;22.17;;;4.93;;
47349;SDS011;33088;51.982;5.872;2023-04-25T00:16:18;17.35;;;4.25;;
47349;SDS011;33088;51.982;5.872;2023-04-25T00:18:43;14.88;;;4.22;;
47349;SDS011;33088;51.982;5.872;2023-04-25T00:21:11;14.32;;;4.72;;
47349;SDS011;33088;51.982;5.872;2023-04-25T00:23:37;12.93;;;4.55;;
47349;SDS011;33088;51.982;5.872;2023-04-25T00:26:03;17.27;;;4.90;;
47349;SDS011;33088;51.982;5.872;2023-04-25T00:28:29;16.73;;;4.57;;
47349;SDS011;33088;51.982;5.872;2023-04-25T00:30:55;18.48;;;4.80;;
47349;SDS011;33088;51.982;5.872;2023-04-25T00:33:21;18.08;;;5.28;;
47349;SDS011;33088;51.982;5.872;2023-04-25T00:35:46;20.60;;;5.63;;
47349;SDS011;33088;51.982;5.872;2023-04-25T00:38:15;16.13;;;3.88;;
47349;SDS011;33088;51.982;5.872;2023-04-25T00:40:41;18.95;;;4.70;;
47349;SDS011;33088;51.982;5.872;2023-04-25T00:43:08;16.17;;;5.18;;
47349;SDS011;33088;51.982;5.872;2023-04-25T00:45:34;12.02;;;4.57;;
47349;SDS011;33088;51.982;5.872;2023-04-25T00:48:04;25.48;;;6.97;;
47349;SDS011;33088;51.982;5.872;2023-04-25T00:50:30;22.65;;;6.13;;
47349;SDS011;33088;51.982;5.872;2023-04-25T00:52:58;13.85;;;5.28;;
47349;SDS011;33088;51.982;5.872;2023-04-25T00:55:23;26.20;;;6.18;;
47349;SDS011;33088;51.982;5.872;2023-04-25T00:57:49;25.55;;;6.13;;
47349;SDS011;33088;51.982;5.872;2023-04-25T01:00:16;16.40;;;5.40;;
47349;SDS011;33088;51.982;5.872;2023-04-25T01:02:42;19.98;;;6.90;;
47349;SDS011;33088;51.982;5.872;2023-04-25T01:05:09;18.70;;;5.45;;
47349;SDS011;33088;51.982;5.872;2023-04-25T01:07:37;15.45;;;5.50;;
47349;SDS011;33088;51.982;5.872;2023-04-25T01:10:03;21.70;;;5.78;;
47349;SDS011;33088;51.982;5.872;2023-04-25T01:12:29;20.15;;;5.80;;
47349;SDS011;33088;51.982;5.872;2023-04-25T01:14:56;39.85;;;7.00;;
47349;SDS011;33088;51.982;5.872;2023-04-25T01:17:22;24.17;;;5.82;;
47349;SDS011;33088;51.982;5.872;2023-04-25T01:19:49;23.45;;;7.38;;
47349;SDS011;33088;51.982;5.872;2023-04-25T01:22:16;25.23;;;7.28;;
47349;SDS011;33088;51.982;5.872;2023-04-25T01:24:46;21.67;;;6.13;;
47349;SDS011;33088;51.982;5.872;2023-04-25T01:27:12;23.35;;;6.70;;
47349;SDS011;33088;51.982;5.872;2023-04-25T01:29:38;23.88;;;8.75;;
47349;SDS011;33088;51.982;5.872;2023-04-25T01:32:05;29.77;;;7.30;;
47349;SDS011;33088;51.982;5.872;2023-04-25T01:34:32;17.65;;;6.95;;
47349;SDS011;33088;51.982;5.872;2023-04-25T01:36:59;20.52;;;6.45;;
47349;SDS011;33088;51.982;5.872;2023-04-25T01:39:27;29.35;;;7.10;;
47349;SDS011;33088;51.982;5.872;2023-04-25T01:41:52;24.83;;;6.60;;
47349;SDS011;33088;51.982;5.872;2023-04-25T01:44:18;25.58;;;9.02;;
47349;SDS011;33088;51.982;5.872;2023-04-25T01:46:47;25.50;;;6.43;;
47349;SDS011;33088;51.982;5.872;2023-04-25T01:49:12;19.85;;;6.47;;
47349;SDS011;33088;51.982;5.872;2023-04-25T01:51:39;20.08;;;6.55;;
47349;SDS011;33088;51.982;5.872;2023-04-25T01:54:05;27.88;;;5.95;;
47349;SDS011;33088;51.982;5.872;2023-04-25T01:56:31;23.23;;;5.93;;
47349;SDS011;33088;51.982;5.872;2023-04-25T01:58:58;23.40;;;6.05;;
47349;SDS011;33088;51.982;5.872;2023-04-25T02:01:45;15.93;;;5.82;;
47349;SDS011;33088;51.982;5.872;2023-04-25T02:04:19;21.90;;;6.45;;
47349;SDS011;33088;51.982;5.872;2023-04-25T02:06:45;16.25;;;5.55;;
47349;SDS011;33088;51.982;5.872;2023-04-25T02:09:11;17.90;;;5.57;;
47349;SDS011;33088;51.982;5.872;2023-04-25T02:11:41;22.75;;;6.65;;
47349;SDS011;33088;51.982;5.872;2023-04-25T02:14:27;14.85;;;5.72;;
47349;SDS011;33088;51.982;5.872;2023-04-25T02:17:19;24.40;;;6.93;;
47349;SDS011;33088;51.982;5.872;2023-04-25T02:19:50;22.50;;;6.18;;
47349;SDS011;33088;51.982;5.872;2023-04-25T02:22:16;16.83;;;5.80;;
47349;SDS011;33088;51.982;5.872;2023-04-25T02:24:41;21.05;;;6.03;;
47349;SDS011;33088;51.982;5.872;2023-04-25T02:27:07;20.33;;;6.68;;
47349;SDS011;33088;51.982;5.872;2023-04-25T02:29:34;16.15;;;6.15;;
47349;SDS011;33088;51.982;5.872;2023-04-25T02:32:00;25.33;;;7.18;;
47349;SDS011;33088;51.982;5.872;2023-04-25T02:34:28;17.55;;;5.78;;
47349;SDS011;33088;51.982;5.872;2023-04-25T02:36:54;22.42;;;5.60;;
47349;SDS011;33088;51.982;5.872;2023-04-25T02:39:20;18.33;;;6.25;;
47349;SDS011;33088;51.982;5.872;2023-04-25T02:41:47;23.85;;;5.50;;
47349;SDS011;33088;51.982;5.872;2023-04-25T02:44:12;26.02;;;6.20;;
47349;SDS011;33088;51.982;5.872;2023-04-25T02:46:38;22.27;;;5.00;;
47349;SDS011;33088;51.982;5.872;2023-04-25T02:49:04;17.77;;;5.57;;
47349;SDS011;33088;51.982;5.872;2023-04-25T02:51:31;18.30;;;4.88;;
47349;SDS011;33088;51.982;5.872;2023-04-25T02:53:57;16.05;;;6.35;;
47349;SDS011;33088;51.982;5.872;2023-04-25T02:56:23;12.57;;;4.15;;
47349;SDS011;33088;51.982;5.872;2023-04-25T02:58:51;18.77;;;5.47;;
47349;SDS011;33088;51.982;5.872;2023-04-25T03:01:17;16.75;;;6.07;;
47349;SDS011;33088;51.982;5.872;2023-04-25T03:03:42;23.80;;;6.13;;
47349;SDS011;33088;51.982;5.872;2023-04-25T03:06:08;22.08;;;6.20;;
47349;SDS011;33088;51.982;5.872;2023-04-25T03:08:35;24.73;;;5.47;;
47349;SDS011;33088;51.982;5.872;2023-04-25T03:11:01;16.13;;;4.85;;
47349;SDS011;33088;51.982;5.872;2023-04-25T03:13:27;18.08;;;5.47;;
47349;SDS011;33088;51.982;5.872;2023-04-25T03:15:55;19.45;;;6.47;;
47349;SDS011;33088;51.982;5.872;2023-04-25T03:18:21;24.30;;;6.78;;
47349;SDS011;33088;51.982;5.872;2023-04-25T03:20:47;18.58;;;5.85;;
47349;SDS011;33088;51.982;5.872;2023-04-25T03:23:12;14.93;;;5.13;;
47349;SDS011;33088;51.982;5.872;2023-04-25T03:25:40;20.33;;;5.15;;
47349;SDS011;33088;51.982;5.872;2023-04-25T03:28:06;16.55;;;5.50;;
47349;SDS011;33088;51.982;5.872;2023-04-25T03:30:35;28.45;;;7.45;;
47349;SDS011;33088;51.982;5.872;2023-04-25T03:33:01;23.88;;;6.35;;
47349;SDS011;33088;51.982;5.872;2023-04-25T03:35:26;18.55;;;5.28;;
47349;SDS011;33088;51.982;5.872;2023-04-25T03:37:53;22.23;;;5.85;;
47349;SDS011;33088;51.982;5.872;2023-04-25T03:40:24;20.35;;;6.03;;
47349;SDS011;33088;51.982;5.872;2023-04-25T03:43:05;23.20;;;6.25;;
47349;SDS011;33088;51.982;5.872;2023-04-25T03:45:32;25.52;;;5.60;;
47349;SDS011;33088;51.982;5.872;2023-04-25T03:47:58;30.77;;;8.02;;
47349;SDS011;33088;51.982;5.872;2023-04-25T03:50:25;19.65;;;6.15;;
47349;SDS011;33088;51.982;5.872;2023-04-25T03:52:52;22.10;;;5.28;;
47349;SDS011;33088;51.982;5.872;2023-04-25T03:55:18;27.92;;;7.28;;
47349;SDS011;33088;51.982;5.872;2023-04-25T03:57:45;20.83;;;5.65;;
47349;SDS011;33088;51.982;5.872;2023-04-25T04:00:10;21.30;;;5.25;;
47349;SDS011;33088;51.982;5.872;2023-04-25T04:02:39;17.45;;;5.53;;
47349;SDS011;33088;51.982;5.872;2023-04-25T04:05:06;17.83;;;5.88;;
47349;SDS011;33088;51.982;5.872;2023-04-25T04:07:35;20.08;;;5.35;;
47349;SDS011;33088;51.982;5.872;2023-04-25T04:10:09;12.63;;;4.80;;
47349;SDS011;33088;51.982;5.872;2023-04-25T04:12:38;20.77;;;5.30;;
47349;SDS011;33088;51.982;5.872;2023-04-25T04:15:07;13.68;;;4.95;;
47349;SDS011;33088;51.982;5.872;2023-04-25T04:17:33;18.58;;;5.35;;
47349;SDS011;33088;51.982;5.872;2023-04-25T04:19:59;17.92;;;4.65;;
47349;SDS011;33088;51.982;5.872;2023-04-25T04:22:28;16.80;;;5.90;;
47349;SDS011;33088;51.982;5.872;2023-04-25T04:24:57;17.58;;;5.85;;
47349;SDS011;33088;51.982;5.872;2023-04-25T04:27:43;31.95;;;6.25;;
47349;SDS011;33088;51.982;5.872;2023-04-25T04:30:23;22.60;;;5.57;;
47349;SDS011;33088;51.982;5.872;2023-04-25T04:32:55;23.40;;;6.40;;
47349;SDS011;33088;51.982;5.872;2023-04-25T04:35:22;17.08;;;5.63;;
47349;SDS011;33088;51.982;5.872;2023-04-25T04:37:50;13.57;;;5.50;;
47349;SDS011;33088;51.982;5.872;2023-04-25T04:40:17;18.13;;;5.20;;
47349;SDS011;33088;51.982;5.872;2023-04-25T04:43:05;19.13;;;6.65;;
47349;SDS011;33088;51.982;5.872;2023-04-25T04:45:45;18.33;;;5.28;;
47349;SDS011;33088;51.982;5.872;2023-04-25T04:48:29;21.23;;;5.72;;
47349;SDS011;33088;51.982;5.872;2023-04-25T04:51:17;20.45;;;5.50;;
47349;SDS011;33088;51.982;5.872;2023-04-25T04:53:49;14.45;;;4.95;;
47349;SDS011;33088;51.982;5.872;2023-04-25T04:56:33;28.55;;;6.55;;
47349;SDS011;33088;51.982;5.872;2023-04-25T04:59:19;16.58;;;5.53;;
47349;SDS011;33088;51.982;5.872;2023-04-25T05:02:07;18.77;;;5.20;;
47349;SDS011;33088;51.982;5.872;2023-04-25T05:04:43;18.80;;;5.68;;
47349;SDS011;33088;51.982;5.872;2023-04-25T05:07:33;18.30;;;5.40;;
47349;SDS011;33088;51.982;5.872;2023-04-25T05:10:19;21.50;;;5.57;;
47349;SDS011;33088;51.982;5.872;2023-04-25T05:13:05;28.55;;;5.78;;
47349;SDS011;33088;51.982;5.872;2023-04-25T05:15:50;19.30;;;5.15;;
47349;SDS011;33088;51.982;5.872;2023-04-25T05:21:16;16.95;;;5.18;;
47349;SDS011;33088;51.982;5.872;2023-04-25T05:24:11;29.00;;;6.80;;
47349;SDS011;33088;51.982;5.872;2023-04-25T05:26:55;17.23;;;5.38;;
47349;SDS011;33088;51.982;5.872;2023-04-25T05:29:37;19.92;;;5.68;;
47349;SDS011;33088;51.982;5.872;2023-04-25T05:32:19;20.17;;;4.68;;
47349;SDS011;33088;51.982;5.872;2023-04-25T05:34:46;17.85;;;4.88;;
47349;SDS011;33088;51.982;5.872;2023-04-25T05:37:21;15.60;;;4.95;;
47349;SDS011;33088;51.982;5.872;2023-04-25T05:42:35;23.30;;;5.38;;
47349;SDS011;33088;51.982;5.872;2023-04-25T05:45:19;22.40;;;5.97;;
47349;SDS011;33088;51.982;5.872;2023-04-25T05:47:53;18.65;;;4.60;;
47349;SDS011;33088;51.982;5.872;2023-04-25T05:50:31;16.13;;;5.35;;
47349;SDS011;33088;51.982;5.872;2023-04-25T05:53:03;13.05;;;5.30;;
47349;SDS011;33088;51.982;5.872;2023-04-25T05:55:38;19.23;;;5.03;;
47349;SDS011;33088;51.982;5.872;2023-04-25T05:58:20;12.48;;;3.42;;
47349;SDS011;33088;51.982;5.872;2023-04-25T06:00:46;13.65;;;3.80;;
47349;SDS011;33088;51.982;5.872;2023-04-25T06:03:12;15.40;;;3.90;;
47349;SDS011;33088;51.982;5.872;2023-04-25T06:05:43;17.50;;;3.72;;
47349;SDS011;33088;51.982;5.872;2023-04-25T06:08:09;17.15;;;4.80;;
47349;SDS011;33088;51.982;5.872;2023-04-25T06:10:36;14.95;;;4.95;;
47349;SDS011;33088;51.982;5.872;2023-04-25T06:13:02;10.70;;;4.00;;
47349;SDS011;33088;51.982;5.872;2023-04-25T06:15:30;11.20;;;3.40;;
47349;SDS011;33088;51.982;5.872;2023-04-25T06:17:59;13.98;;;3.95;;
47349;SDS011;33088;51.982;5.872;2023-04-25T06:20:25;18.70;;;4.10;;
47349;SDS011;33088;51.982;5.872;2023-04-25T06:22:52;17.50;;;6.10;;
47349;SDS011;33088;51.982;5.872;2023-04-25T06:25:20;8.10;;;3.55;;
47349;SDS011;33088;51.982;5.872;2023-04-25T06:27:46;13.15;;;4.03;;
47349;SDS011;33088;51.982;5.872;2023-04-25T06:30:12;17.33;;;4.43;;
47349;SDS011;33088;51.982;5.872;2023-04-25T06:32:38;22.23;;;6.85;;
47349;SDS011;33088;51.982;5.872;2023-04-25T06:35:04;15.88;;;4.63;;
47349;SDS011;33088;51.982;5.872;2023-04-25T06:37:32;12.95;;;4.50;;
47349;SDS011;33088;51.982;5.872;2023-04-25T06:39:57;20.05;;;4.65;;
47349;SDS011;33088;51.982;5.872;2023-04-25T06:42:23;16.85;;;4.20;;
47349;SDS011;33088;51.982;5.872;2023-04-25T06:44:58;12.93;;;3.55;;
47349;SDS011;33088;51.982;5.872;2023-04-25T06:47:26;20.02;;;4.05;;
47349;SDS011;33088;51.982;5.872;2023-04-25T06:49:52;13.68;;;3.40;;
47349;SDS011;33088;51.982;5.872;2023-04-25T06:52:19;17.17;;;4.57;;
47349;SDS011;33088;51.982;5.872;2023-04-25T06:54:45;13.07;;;3.55;;
47349;SDS011;33088;51.982;5.872;2023-04-25T06:57:34;11.80;;;3.28;;
47349;SDS011;33088;51.982;5.872;2023-04-25T07:00:17;9.82;;;3.45;;
47349;SDS011;33088;51.982;5.872;2023-04-25T07:02:43;14.57;;;4.07;;
47349;SDS011;33088;51.982;5.872;2023-04-25T07:05:09;11.63;;;3.33;;
47349;SDS011;33088;51.982;5.872;2023-04-25T07:07:35;15.57;;;3.13;;
47349;SDS011;33088;51.982;5.872;2023-04-25T07:10:01;11.57;;;2.83;;
47349;SDS011;33088;51.982;5.872;2023-04-25T07:12:27;11.05;;;3.10;;
47349;SDS011;33088;51.982;5.872;2023-04-25T07:14:52;16.75;;;4.10;;
47349;SDS011;33088;51.982;5.872;2023-04-25T07:17:18;12.13;;;3.10;;
47349;SDS011;33088;51.982;5.872;2023-04-25T07:19:44;9.15;;;3.03;;
47349;SDS011;33088;51.982;5.872;2023-04-25T07:22:10;12.80;;;3.15;;
47349;SDS011;33088;51.982;5.872;2023-04-25T07:24:38;12.70;;;3.88;;
47349;SDS011;33088;51.982;5.872;2023-04-25T07:27:05;10.80;;;2.30;;
47349;SDS011;33088;51.982;5.872;2023-04-25T07:29:57;8.95;;;2.22;;
47349;SDS011;33088;51.982;5.872;2023-04-25T07:32:24;8.02;;;2.47;;
47349;SDS011;33088;51.982;5.872;2023-04-25T07:34:51;16.55;;;3.35;;
47349;SDS011;33088;51.982;5.872;2023-04-25T07:37:17;14.65;;;2.38;;
47349;SDS011;33088;51.982;5.872;2023-04-25T07:39:57;11.85;;;2.38;;
47349;SDS011;33088;51.982;5.872;2023-04-25T07:42:22;10.55;;;2.28;;
47349;SDS011;33088;51.982;5.872;2023-04-25T07:44:48;13.05;;;2.70;;
47349;SDS011;33088;51.982;5.872;2023-04-25T07:47:14;11.73;;;2.83;;
47349;SDS011;33088;51.982;5.872;2023-04-25T07:49:40;6.05;;;2.17;;
47349;SDS011;33088;51.982;5.872;2023-04-25T07:52:06;6.82;;;2.05;;
47349;SDS011;33088;51.982;5.872;2023-04-25T07:54:34;16.52;;;2.28;;
47349;SDS011;33088;51.982;5.872;2023-04-25T07:57:07;11.23;;;3.03;;
47349;SDS011;33088;51.982;5.872;2023-04-25T07:59:34;10.65;;;2.25;;
47349;SDS011;33088;51.982;5.872;2023-04-25T08:02:01;12.95;;;2.00;;
47349;SDS011;33088;51.982;5.872;2023-04-25T08:04:28;12.13;;;2.75;;
47349;SDS011;33088;51.982;5.872;2023-04-25T08:06:58;8.50;;;2.28;;
47349;SDS011;33088;51.982;5.872;2023-04-25T08:09:28;11.63;;;2.40;;
47349;SDS011;33088;51.982;5.872;2023-04-25T08:11:58;10.25;;;2.20;;
47349;SDS011;33088;51.982;5.872;2023-04-25T08:14:30;9.82;;;2.05;;
47349;SDS011;33088;51.982;5.872;2023-04-25T08:17:01;9.00;;;2.10;;
47349;SDS011;33088;51.982;5.872;2023-04-25T08:19:28;17.00;;;2.40;;
47349;SDS011;33088;51.982;5.872;2023-04-25T08:21:55;9.63;;;1.92;;
47349;SDS011;33088;51.982;5.872;2023-04-25T08:24:26;4.47;;;1.63;;
47349;SDS011;33088;51.982;5.872;2023-04-25T08:26:52;16.92;;;3.38;;
47349;SDS011;33088;51.982;5.872;2023-04-25T08:29:21;8.40;;;1.60;;
47349;SDS011;33088;51.982;5.872;2023-04-25T08:31:48;6.90;;;2.13;;
47349;SDS011;33088;51.982;5.872;2023-04-25T08:34:14;4.78;;;1.73;;
47349;SDS011;33088;51.982;5.872;2023-04-25T08:36:46;10.15;;;1.98;;
47349;SDS011;33088;51.982;5.872;2023-04-25T08:39:38;14.25;;;2.78;;
47349;SDS011;33088;51.982;5.872;2023-04-25T08:42:20;6.35;;;1.60;;
47349;SDS011;33088;51.982;5.872;2023-04-25T08:44:47;6.50;;;1.70;;
47349;SDS011;33088;51.982;5.872;2023-04-25T08:47:13;11.10;;;1.70;;
47349;SDS011;33088;51.982;5.872;2023-04-25T08:49:50;9.20;;;2.15;;
47349;SDS011;33088;51.982;5.872;2023-04-25T08:52:21;7.03;;;1.80;;
47349;SDS011;33088;51.982;5.872;2023-04-25T08:54:48;6.03;;;1.52;;
47349;SDS011;33088;51.982;5.872;2023-04-25T08:57:17;9.75;;;3.47;;
47349;SDS011;33088;51.982;5.872;2023-04-25T08:59:45;11.07;;;1.92;;
47349;SDS011;33088;51.982;5.872;2023-04-25T09:02:12;12.38;;;2.75;;
47349;SDS011;33088;51.982;5.872;2023-04-25T09:04:46;8.73;;;1.95;;
47349;SDS011;33088;51.982;5.872;2023-04-25T09:07:13;8.77;;;2.20;;
47349;SDS011;33088;51.982;5.872;2023-04-25T09:09:46;8.02;;;1.70;;
47349;SDS011;33088;51.982;5.872;2023-04-25T09:12:15;7.43;;;1.25;;
47349;SDS011;33088;51.982;5.872;2023-04-25T09:14:43;6.70;;;1.70;;
47349;SDS011;33088;51.982;5.872;2023-04-25T09:17:57;8.57;;;1.75;;
47349;SDS011;33088;51.982;5.872;2023-04-25T09:20:26;6.10;;;1.80;;
47349;SDS011;33088;51.982;5.872;2023-04-25T09:23:00;9.02;;;2.08;;
47349;SDS011;33088;51.982;5.872;2023-04-25T09:25:33;6.32;;;1.67;;
47349;SDS011;33088;51.982;5.872;2023-04-25T09:28:05;3.15;;;1.20;;
47349;SDS011;33088;51.982;5.872;2023-04-25T09:30:32;12.20;;;1.90;;
47349;SDS011;33088;51.982;5.872;2023-04-25T09:33:12;6.07;;;1.40;;
47349;SDS011;33088;51.982;5.872;2023-04-25T09:35:44;7.82;;;1.48;;
47349;SDS011;33088;51.982;5.872;2023-04-25T09:38:23;3.42;;;1.08;;
47349;SDS011;33088;51.982;5.872;2023-04-25T09:41:06;5.25;;;1.17;;
47349;SDS011;33088;51.982;5.872;2023-04-25T09:43:39;7.18;;;1.27;;
47349;SDS011;33088;51.982;5.872;2023-04-25T09:46:10;8.75;;;1.27;;
47349;SDS011;33088;51.982;5.872;2023-04-25T09:48:40;5.63;;;1.65;;
47349;SDS011;33088;51.982;5.872;2023-04-25T09:51:13;9.70;;;1.80;;
47349;SDS011;33088;51.982;5.872;2023-04-25T09:53:42;9.52;;;1.38;;
47349;SDS011;33088;51.982;5.872;2023-04-25T09:56:17;7.60;;;1.40;;
47349;SDS011;33088;51.982;5.872;2023-04-25T09:58:46;7.45;;;1.42;;
47349;SDS011;33088;51.982;5.872;2023-04-25T10:01:14;7.78;;;1.45;;
47349;SDS011;33088;51.982;5.872;2023-04-25T10:04:00;4.25;;;1.33;;
47349;SDS011;33088;51.982;5.872;2023-04-25T10:06:40;10.13;;;1.58;;
47349;SDS011;33088;51.982;5.872;2023-04-25T10:09:11;5.55;;;1.23;;
47349;SDS011;33088;51.982;5.872;2023-04-25T10:11:39;6.03;;;1.73;;
47349;SDS011;33088;51.982;5.872;2023-04-25T10:14:05;7.97;;;2.25;;
47349;SDS011;33088;51.982;5.872;2023-04-25T10:16:31;4.82;;;1.00;;
47349;SDS011;33088;51.982;5.872;2023-04-25T10:18:57;8.25;;;1.65;;
47349;SDS011;33088;51.982;5.872;2023-04-25T10:21:23;5.80;;;1.55;;
47349;SDS011;33088;51.982;5.872;2023-04-25T10:23:52;8.02;;;2.33;;
47349;SDS011;33088;51.982;5.872;2023-04-25T10:26:18;5.80;;;1.30;;
47349;SDS011;33088;51.982;5.872;2023-04-25T10:29:00;3.65;;;1.02;;
47349;SDS011;33088;51.982;5.872;2023-04-25T10:33:55;3.65;;;0.90;;
47349;SDS011;33088;51.982;5.872;2023-04-25T10:36:21;6.63;;;1.10;;
47349;SDS011;33088;51.982;5.872;2023-04-25T10:38:52;5.38;;;1.20;;
47349;SDS011;33088;51.982;5.872;2023-04-25T10:41:19;7.65;;;1.83;;
47349;SDS011;33088;51.982;5.872;2023-04-25T10:43:49;7.57;;;1.90;;
47349;SDS011;33088;51.982;5.872;2023-04-25T10:46:27;5.95;;;1.60;;
47349;SDS011;33088;51.982;5.872;2023-04-25T10:49:00;4.85;;;1.40;;
47349;SDS011;33088;51.982;5.872;2023-04-25T10:51:33;7.88;;;1.48;;
47349;SDS011;33088;51.982;5.872;2023-04-25T10:54:01;5.88;;;1.25;;
47349;SDS011;33088;51.982;5.872;2023-04-25T10:56:29;7.50;;;1.40;;
47349;SDS011;33088;51.982;5.872;2023-04-25T10:59:12;4.97;;;1.33;;
47349;SDS011;33088;51.982;5.872;2023-04-25T11:01:41;7.03;;;1.60;;
47349;SDS011;33088;51.982;5.872;2023-04-25T11:07:08;7.00;;;1.73;;
47349;SDS011;33088;51.982;5.872;2023-04-25T11:09:44;5.30;;;1.15;;
47349;SDS011;33088;51.982;5.872;2023-04-25T11:12:10;5.68;;;1.98;;
47349;SDS011;33088;51.982;5.872;2023-04-25T11:14:37;6.68;;;1.58;;
47349;SDS011;33088;51.982;5.872;2023-04-25T11:17:03;10.23;;;2.13;;
47349;SDS011;33088;51.982;5.872;2023-04-25T11:19:29;3.90;;;1.13;;
47349;SDS011;33088;51.982;5.872;2023-04-25T11:21:55;1.70;;;0.88;;
47349;SDS011;33088;51.982;5.872;2023-04-25T11:24:31;5.18;;;1.10;;
47349;SDS011;33088;51.982;5.872;2023-04-25T11:26:58;4.45;;;1.10;;
47349;SDS011;33088;51.982;5.872;2023-04-25T11:29:27;4.30;;;1.20;;
47349;SDS011;33088;51.982;5.872;2023-04-25T11:34:26;4.55;;;0.98;;
47349;SDS011;33088;51.982;5.872;2023-04-25T11:36:55;8.60;;;1.20;;
47349;SDS011;33088;51.982;5.872;2023-04-25T11:39:21;3.55;;;0.93;;
47349;SDS011;33088;51.982;5.872;2023-04-25T11:41:49;5.30;;;1.10;;
47349;SDS011;33088;51.982;5.872;2023-04-25T11:44:16;5.55;;;1.17;;
47349;SDS011;33088;51.982;5.872;2023-04-25T11:46:42;6.20;;;1.52;;
47349;SDS011;33088;51.982;5.872;2023-04-25T11:49:08;7.65;;;1.33;;
47349;SDS011;33088;51.982;5.872;2023-04-25T11:51:38;5.50;;;1.35;;
47349;SDS011;33088;51.982;5.872;2023-04-25T11:54:05;6.72;;;1.45;;
47349;SDS011;33088;51.982;5.872;2023-04-25T11:56:31;3.40;;;1.38;;
47349;SDS011;33088;51.982;5.872;2023-04-25T11:59:00;3.63;;;0.93;;
47349;SDS011;33088;51.982;5.872;2023-04-25T12:01:28;6.35;;;1.40;;
47349;SDS011;33088;51.982;5.872;2023-04-25T12:03:55;5.05;;;1.30;;
47349;SDS011;33088;51.982;5.872;2023-04-25T12:06:21;3.05;;;0.98;;
47349;SDS011;33088;51.982;5.872;2023-04-25T12:09:01;2.85;;;0.80;;
47349;SDS011;33088;51.982;5.872;2023-04-25T12:11:40;4.57;;;1.23;;
47349;SDS011;33088;51.982;5.872;2023-04-25T12:14:09;6.85;;;1.58;;
47349;SDS011;33088;51.982;5.872;2023-04-25T12:19:08;7.28;;;1.55;;
47349;SDS011;33088;51.982;5.872;2023-04-25T12:21:35;5.05;;;1.50;;
47349;SDS011;33088;51.982;5.872;2023-04-25T12:24:11;7.63;;;1.48;;
47349;SDS011;33088;51.982;5.872;2023-04-25T12:26:50;4.45;;;0.90;;
47349;SDS011;33088;51.982;5.872;2023-04-25T12:29:16;7.63;;;1.30;;
47349;SDS011;33088;51.982;5.872;2023-04-25T12:31:50;6.72;;;1.20;;
47349;SDS011;33088;51.982;5.872;2023-04-25T12:34:17;6.75;;;1.33;;
47349;SDS011;33088;51.982;5.872;2023-04-25T12:36:43;3.40;;;1.40;;
47349;SDS011;33088;51.982;5.872;2023-04-25T12:39:14;6.55;;;1.10;;
47349;SDS011;33088;51.982;5.872;2023-04-25T12:41:44;5.13;;;1.25;;
47349;SDS011;33088;51.982;5.872;2023-04-25T12:44:11;6.32;;;1.63;;
47349;SDS011;33088;51.982;5.872;2023-04-25T12:46:37;3.47;;;1.25;;
47349;SDS011;33088;51.982;5.872;2023-04-25T12:49:04;3.50;;;1.10;;
47349;SDS011;33088;51.982;5.872;2023-04-25T12:51:32;5.80;;;1.67;;
47349;SDS011;33088;51.982;5.872;2023-04-25T12:53:58;7.43;;;2.00;;
47349;SDS011;33088;51.982;5.872;2023-04-25T12:56:25;6.40;;;1.60;;
47349;SDS011;33088;51.982;5.872;2023-04-25T12:58:52;9.00;;;1.77;;
47349;SDS011;33088;51.982;5.872;2023-04-25T13:01:18;4.50;;;1.30;;
47349;SDS011;33088;51.982;5.872;2023-04-25T13:03:45;5.53;;;1.30;;
47349;SDS011;33088;51.982;5.872;2023-04-25T13:06:11;7.88;;;1.85;;
47349;SDS011;33088;51.982;5.872;2023-04-25T13:08:38;4.90;;;1.38;;
47349;SDS011;33088;51.982;5.872;2023-04-25T13:11:04;4.25;;;0.90;;
47349;SDS011;33088;51.982;5.872;2023-04-25T13:13:30;6.22;;;1.45;;
47349;SDS011;33088;51.982;5.872;2023-04-25T13:15:57;3.80;;;1.20;;
47349;SDS011;33088;51.982;5.872;2023-04-25T13:18:26;4.00;;;1.23;;
47349;SDS011;33088;51.982;5.872;2023-04-25T13:20:53;7.50;;;1.20;;
47349;SDS011;33088;51.982;5.872;2023-04-25T13:23:19;3.97;;;1.50;;
47349;SDS011;33088;51.982;5.872;2023-04-25T13:25:45;6.38;;;1.27;;
47349;SDS011;33088;51.982;5.872;2023-04-25T13:28:11;5.40;;;1.40;;
47349;SDS011;33088;51.982;5.872;2023-04-25T13:30:37;4.53;;;1.35;;
47349;SDS011;33088;51.982;5.872;2023-04-25T13:33:03;3.35;;;1.13;;
47349;SDS011;33088;51.982;5.872;2023-04-25T13:35:29;3.00;;;1.05;;
47349;SDS011;33088;51.982;5.872;2023-04-25T13:37:55;7.75;;;2.05;;
47349;SDS011;33088;51.982;5.872;2023-04-25T13:40:21;4.25;;;1.20;;
47349;SDS011;33088;51.982;5.872;2023-04-25T13:42:47;5.00;;;1.23;;
47349;SDS011;33088;51.982;5.872;2023-04-25T13:45:13;2.08;;;1.10;;
47349;SDS011;33088;51.982;5.872;2023-04-25T13:47:38;4.18;;;0.93;;
47349;SDS011;33088;51.982;5.872;2023-04-25T13:50:04;6.00;;;1.40;;
47349;SDS011;33088;51.982;5.872;2023-04-25T13:52:31;2.95;;;0.90;;
47349;SDS011;33088;51.982;5.872;2023-04-25T13:54:56;2.95;;;1.27;;
47349;SDS011;33088;51.982;5.872;2023-04-25T13:57:22;2.15;;;1.15;;
47349;SDS011;33088;51.982;5.872;2023-04-25T13:59:48;3.92;;;1.33;;
47349;SDS011;33088;51.982;5.872;2023-04-25T14:02:14;3.80;;;1.23;;
47349;SDS011;33088;51.982;5.872;2023-04-25T14:04:40;2.42;;;0.93;;
47349;SDS011;33088;51.982;5.872;2023-04-25T14:07:06;6.30;;;0.90;;
47349;SDS011;33088;51.982;5.872;2023-04-25T14:09:31;5.35;;;1.15;;
47349;SDS011;33088;51.982;5.872;2023-04-25T14:11:57;7.13;;;0.93;;
47349;SDS011;33088;51.982;5.872;2023-04-25T14:14:23;6.55;;;1.40;;
47349;SDS011;33088;51.982;5.872;2023-04-25T14:16:50;4.30;;;1.15;;
47349;SDS011;33088;51.982;5.872;2023-04-25T14:19:17;9.75;;;1.60;;
47349;SDS011;33088;51.982;5.872;2023-04-25T14:21:43;4.22;;;1.33;;
47349;SDS011;33088;51.982;5.872;2023-04-25T14:24:09;6.20;;;1.38;;
47349;SDS011;33088;51.982;5.872;2023-04-25T14:26:36;4.15;;;1.38;;
47349;SDS011;33088;51.982;5.872;2023-04-25T14:29:02;8.70;;;1.73;;
47349;SDS011;33088;51.982;5.872;2023-04-25T14:31:31;8.85;;;1.70;;
47349;SDS011;33088;51.982;5.872;2023-04-25T14:33:57;3.97;;;1.35;;
47349;SDS011;33088;51.982;5.872;2023-04-25T14:36:23;5.88;;;1.55;;
47349;SDS011;33088;51.982;5.872;2023-04-25T14:38:51;2.13;;;1.15;;
47349;SDS011;33088;51.982;5.872;2023-04-25T14:41:17;8.27;;;1.95;;
47349;SDS011;33088;51.982;5.872;2023-04-25T14:43:43;4.88;;;1.05;;
47349;SDS011;33088;51.982;5.872;2023-04-25T14:46:10;6.75;;;1.10;;
47349;SDS011;33088;51.982;5.872;2023-04-25T14:48:36;6.20;;;1.45;;
47349;SDS011;33088;51.982;5.872;2023-04-25T14:51:02;2.40;;;0.88;;
47349;SDS011;33088;51.982;5.872;2023-04-25T14:53:28;8.13;;;1.70;;
47349;SDS011;33088;51.982;5.872;2023-04-25T14:55:53;10.98;;;1.42;;
47349;SDS011;33088;51.982;5.872;2023-04-25T14:58:19;8.68;;;1.48;;
47349;SDS011;33088;51.982;5.872;2023-04-25T15:00:45;5.07;;;1.27;;
47349;SDS011;33088;51.982;5.872;2023-04-25T15:03:11;5.40;;;1.65;;
47349;SDS011;33088;51.982;5.872;2023-04-25T15:05:38;4.13;;;1.02;;
47349;SDS011;33088;51.982;5.872;2023-04-25T15:08:05;3.58;;;1.30;;
47349;SDS011;33088;51.982;5.872;2023-04-25T15:10:31;5.40;;;1.10;;